Time;durP1;ratioP1;P1;durP2;ratioP2;P2;SDS_P1;SDS_P2;PMS_P1;PMS_P2;Temp;Humidity;BMP_temperature;BMP_pressure;BME280_temperature;BME280_humidity;BME280_pressure;Samples;Min_cycle;Max_cycle;Signal;HPM_P1;HPM_P2
2021/04/30 00:00:07;;;;;;;10.93;6.07;;;7.00;99.90;;;;;;5074789;28;20654;-78
2021/04/30 00:02:33;;;;;;;10.00;6.63;;;7.00;99.90;;;;;;5075145;28;20228;-78
2021/04/30 00:04:58;;;;;;;14.83;6.17;;;7.00;99.90;;;;;;5074751;28;20190;-78
2021/04/30 00:07:24;;;;;;;8.00;5.70;;;7.00;99.90;;;;;;5074908;28;20183;-78
2021/04/30 00:09:49;;;;;;;9.82;5.80;;;7.00;99.90;;;;;;5076186;28;20201;-78
2021/04/30 00:12:15;;;;;;;9.60;6.28;;;7.00;99.90;;;;;;5074712;28;20277;-77
2021/04/30 00:14:41;;;;;;;12.50;5.95;;;6.90;99.90;;;;;;5075329;28;20224;-78
2021/04/30 00:17:06;;;;;;;8.63;6.60;;;6.90;99.90;;;;;;5076148;28;20505;-78
2021/04/30 00:19:32;;;;;;;8.53;6.73;;;6.90;99.90;;;;;;5076013;28;20691;-78
2021/04/30 00:21:58;;;;;;;10.97;6.23;;;6.90;99.90;;;;;;5075814;28;20186;-78
2021/04/30 00:24:23;;;;;;;16.05;6.63;;;6.90;99.90;;;;;;5054414;28;20203;-78
2021/04/30 00:26:49;;;;;;;14.32;6.72;;;6.90;99.90;;;;;;5055833;28;20180;-78
2021/04/30 00:29:15;;;;;;;8.70;6.57;;;6.80;99.90;;;;;;5055660;28;20513;-78
2021/04/30 00:31:40;;;;;;;14.18;7.13;;;6.80;99.90;;;;;;5073626;28;20235;-78
2021/04/30 00:34:06;;;;;;;10.18;6.97;;;6.80;99.90;;;;;;5074335;28;20573;-78
2021/04/30 00:36:32;;;;;;;9.88;7.70;;;6.80;99.90;;;;;;5075364;28;20178;-78
2021/04/30 00:38:58;;;;;;;11.02;6.75;;;6.80;99.90;;;;;;5074397;28;20529;-78
2021/04/30 00:41:24;;;;;;;7.67;6.50;;;6.70;99.90;;;;;;5075635;28;20171;-78
2021/04/30 00:43:49;;;;;;;8.85;6.00;;;6.70;99.90;;;;;;5074855;28;20186;-78
2021/04/30 00:46:15;;;;;;;12.90;6.88;;;6.60;99.90;;;;;;5075519;28;20386;-79
2021/04/30 00:48:41;;;;;;;11.30;6.03;;;6.50;99.90;;;;;;5074301;28;20175;-78
2021/04/30 00:51:06;;;;;;;8.02;6.03;;;6.40;99.90;;;;;;5073572;28;20171;-78
2021/04/30 00:53:32;;;;;;;6.75;5.85;;;6.30;99.90;;;;;;5073791;28;20213;-78
2021/04/30 00:55:58;;;;;;;8.07;6.60;;;6.20;99.90;;;;;;5074981;28;20231;-78
2021/04/30 00:58:23;;;;;;;14.53;7.13;;;6.10;99.90;;;;;;5075287;28;20228;-78
2021/04/30 01:00:49;;;;;;;6.30;5.73;;;6.10;99.90;;;;;;5074225;28;20654;-78
2021/04/30 01:03:15;;;;;;;13.97;6.23;;;6.00;99.90;;;;;;5073590;28;20182;-77
2021/04/30 01:05:41;;;;;;;9.70;7.27;;;5.80;99.90;;;;;;5074863;28;20281;-78
2021/04/30 01:08:07;;;;;;;8.43;6.83;;;5.70;99.90;;;;;;5073497;28;20256;-78
2021/04/30 01:10:34;;;;;;;6.77;6.20;;;5.60;99.90;;;;;;5073167;28;20174;-78
2021/04/30 01:13:00;;;;;;;7.80;6.83;;;5.60;99.90;;;;;;5056817;28;20190;-78
2021/04/30 01:15:26;;;;;;;9.57;6.43;;;5.40;99.90;;;;;;5074799;28;20174;-78
2021/04/30 01:17:52;;;;;;;7.10;6.30;;;5.40;99.90;;;;;;5075067;28;20175;-78
2021/04/30 01:20:19;;;;;;;9.70;7.13;;;5.30;99.90;;;;;;5073583;28;20262;-78
2021/04/30 01:22:44;;;;;;;10.10;6.90;;;5.30;99.90;;;;;;5074919;28;20174;-78
2021/04/30 01:25:12;;;;;;;7.73;6.93;;;5.20;99.90;;;;;;5086945;28;20217;-78
2021/04/30 01:27:39;;;;;;;8.07;6.53;;;5.20;99.90;;;;;;5094559;28;20189;-78
2021/04/30 01:30:11;;;;;;;11.87;6.93;;;5.10;99.90;;;;;;5093326;28;20657;-78
2021/04/30 01:32:37;;;;;;;8.53;6.83;;;5.10;99.90;;;;;;5093735;28;20162;-79
2021/04/30 01:35:05;;;;;;;9.30;7.43;;;5.10;99.90;;;;;;5078710;28;20208;-78
2021/04/30 01:37:31;;;;;;;12.10;7.43;;;5.20;99.90;;;;;;5073008;28;20232;-78
2021/04/30 01:39:56;;;;;;;10.40;7.73;;;5.10;99.90;;;;;;5074381;28;20603;-78
2021/04/30 01:42:22;;;;;;;10.10;7.27;;;5.00;99.90;;;;;;5072443;28;20175;-78
2021/04/30 01:44:49;;;;;;;10.23;7.33;;;5.00;99.90;;;;;;5073898;28;20742;-77
2021/04/30 01:47:15;;;;;;;10.17;7.37;;;5.10;99.90;;;;;;5074201;28;20190;-79
2021/04/30 01:49:41;;;;;;;8.57;6.90;;;5.10;99.90;;;;;;5072920;28;20166;-78
2021/04/30 01:52:06;;;;;;;11.90;7.83;;;5.20;99.90;;;;;;5072567;28;20163;-79
2021/04/30 01:54:32;;;;;;;7.17;6.50;;;5.10;99.90;;;;;;5056310;28;20186;-79
2021/04/30 01:56:58;;;;;;;13.37;7.23;;;5.00;99.90;;;;;;5074218;28;20171;-78
2021/04/30 01:59:23;;;;;;;13.30;6.83;;;4.90;99.90;;;;;;5056270;28;20185;-78
2021/04/30 02:01:49;;;;;;;9.97;7.43;;;5.00;99.90;;;;;;5071729;28;20250;-78
2021/04/30 02:04:16;;;;;;;16.83;7.40;;;5.00;99.90;;;;;;5054473;28;20175;-78
2021/04/30 02:06:44;;;;;;;13.60;7.97;;;5.00;99.90;;;;;;5072169;28;20167;-78
2021/04/30 02:09:10;;;;;;;11.17;8.07;;;5.00;99.90;;;;;;5073619;28;20171;-78
2021/04/30 02:11:36;;;;;;;8.73;7.67;;;5.00;99.90;;;;;;5072688;28;20179;-79
2021/04/30 02:14:04;;;;;;;7.87;7.17;;;5.00;99.90;;;;;;5072062;28;20217;-78
2021/04/30 02:16:31;;;;;;;8.17;6.87;;;4.80;99.90;;;;;;5073823;28;20174;-78
2021/04/30 02:18:57;;;;;;;13.27;7.90;;;4.70;99.90;;;;;;5073735;28;20166;-78
2021/04/30 02:21:23;;;;;;;11.40;7.60;;;4.60;99.90;;;;;;5071256;28;20539;-78
2021/04/30 02:23:49;;;;;;;12.90;8.07;;;4.50;99.90;;;;;;5072825;28;20175;-78
2021/04/30 02:26:16;;;;;;;11.93;8.37;;;4.50;99.90;;;;;;5055705;28;20651;-78
2021/04/30 02:28:45;;;;;;;8.77;8.00;;;4.60;99.90;;;;;;5072406;28;20244;-79
2021/04/30 02:31:13;;;;;;;11.27;7.30;;;4.60;99.90;;;;;;5072316;28;20240;-78
2021/04/30 02:33:40;;;;;;;9.57;7.87;;;4.70;99.90;;;;;;5073286;28;20178;-79
2021/04/30 02:36:06;;;;;;;16.87;8.43;;;4.70;99.90;;;;;;5073207;28;20181;-78
2021/04/30 02:38:33;;;;;;;8.90;8.00;;;4.60;99.90;;;;;;5072284;28;20244;-78
2021/04/30 02:40:59;;;;;;;14.17;9.53;;;4.70;99.90;;;;;;5073494;28;20296;-78
2021/04/30 02:43:25;;;;;;;9.17;8.27;;;4.80;99.90;;;;;;5073080;28;20195;-78
2021/04/30 02:45:53;;;;;;;16.20;9.13;;;4.80;99.90;;;;;;5073491;28;20643;-78
2021/04/30 02:48:45;;;;;;;11.27;8.80;;;4.70;99.90;;;;;;5072456;28;20532;-78
2021/04/30 02:51:08;;;;;;;10.03;8.43;;;4.70;99.90;;;;;;5072551;28;20183;-78
2021/04/30 02:53:34;;;;;;;10.67;7.83;;;4.60;99.90;;;;;;5073310;28;20171;-79
2021/04/30 02:56:00;;;;;;;10.47;8.33;;;4.60;99.90;;;;;;5072173;28;20187;-78
2021/04/30 02:58:26;;;;;;;9.60;8.60;;;4.50;99.90;;;;;;5072139;28;20535;-78
2021/04/30 03:00:52;;;;;;;10.90;8.40;;;4.60;99.90;;;;;;5073401;28;20175;-78
2021/04/30 03:03:18;;;;;;;12.57;8.67;;;4.50;99.90;;;;;;5073035;28;20295;-79
2021/04/30 03:05:44;;;;;;;9.73;8.67;;;4.30;99.90;;;;;;5073294;28;20240;-79
2021/04/30 03:08:10;;;;;;;11.53;8.60;;;4.20;99.90;;;;;;5072949;28;20183;-79
2021/04/30 03:10:35;;;;;;;10.03;8.97;;;4.10;99.90;;;;;;5071875;28;20231;-79
2021/04/30 03:13:02;;;;;;;14.87;9.60;;;4.00;99.90;;;;;;5071472;28;20190;-79
2021/04/30 03:15:28;;;;;;;9.27;8.33;;;4.00;99.90;;;;;;5073183;28;20305;-78
2021/04/30 03:17:54;;;;;;;11.97;9.97;;;4.00;99.90;;;;;;5071513;28;20206;-79
2021/04/30 03:20:21;;;;;;;11.33;9.33;;;4.00;99.90;;;;;;5071972;28;20304;-79
2021/04/30 03:22:47;;;;;;;13.37;10.00;;;4.10;99.90;;;;;;5072888;28;20179;-79
2021/04/30 03:25:13;;;;;;;11.90;9.90;;;4.00;99.90;;;;;;5072217;28;20203;-79
2021/04/30 03:27:39;;;;;;;13.13;9.87;;;3.90;99.90;;;;;;5071924;28;20175;-79
2021/04/30 03:30:06;;;;;;;11.40;9.60;;;3.90;99.90;;;;;;5073113;28;20178;-79
2021/04/30 03:32:33;;;;;;;11.93;9.43;;;3.80;99.90;;;;;;5071685;28;20624;-79
2021/04/30 03:34:59;;;;;;;17.83;10.10;;;3.80;99.90;;;;;;5077031;28;20167;-79
2021/04/30 03:37:25;;;;;;;13.60;11.07;;;3.80;99.90;;;;;;5076457;28;20585;-79
2021/04/30 03:39:51;;;;;;;11.73;9.63;;;3.80;99.90;;;;;;5075556;28;20270;-79
2021/04/30 03:42:17;;;;;;;14.90;9.57;;;3.70;99.90;;;;;;5076295;28;20183;-79
2021/04/30 03:44:43;;;;;;;13.40;10.40;;;3.80;99.90;;;;;;5075147;28;20284;-78
2021/04/30 03:47:08;;;;;;;10.57;9.47;;;3.80;99.90;;;;;;5076356;28;20258;-79
2021/04/30 03:49:34;;;;;;;13.10;10.17;;;4.10;99.90;;;;;;5076645;28;20603;-78
2021/04/30 03:52:00;;;;;;;14.47;10.50;;;4.10;99.90;;;;;;5076095;28;20178;-79
2021/04/30 03:54:25;;;;;;;13.93;11.47;;;4.10;99.90;;;;;;5075358;28;20198;-78
2021/04/30 03:56:51;;;;;;;11.83;9.90;;;4.00;99.90;;;;;;5076450;28;20193;-79
2021/04/30 03:59:17;;;;;;;15.13;9.97;;;4.10;99.90;;;;;;5076222;28;20626;-78
2021/04/30 04:01:43;;;;;;;14.93;11.27;;;4.10;99.90;;;;;;5076069;28;20260;-79
2021/04/30 04:04:09;;;;;;;21.00;10.63;;;4.10;99.90;;;;;;5075018;28;20167;-78
2021/04/30 04:06:34;;;;;;;16.20;10.73;;;4.00;99.90;;;;;;5074499;28;20344;-79
2021/04/30 04:09:00;;;;;;;12.93;9.93;;;4.00;99.90;;;;;;5075990;28;20197;-79
2021/04/30 04:11:26;;;;;;;10.63;9.03;;;3.90;99.90;;;;;;5074566;28;20269;-78
2021/04/30 04:13:51;;;;;;;10.40;9.40;;;3.90;99.90;;;;;;5075473;28;20210;-79
2021/04/30 04:16:17;;;;;;;14.93;10.97;;;4.00;99.90;;;;;;5074625;28;20630;-78
2021/04/30 04:18:42;;;;;;;14.03;11.10;;;3.90;99.90;;;;;;5075578;28;20170;-79
2021/04/30 04:21:08;;;;;;;12.90;10.70;;;3.80;99.90;;;;;;5074884;28;20244;-79
2021/04/30 04:23:34;;;;;;;11.67;10.57;;;3.70;99.90;;;;;;5074634;28;20251;-78
2021/04/30 04:25:59;;;;;;;21.07;11.27;;;3.60;99.90;;;;;;5075841;28;20206;-78
2021/04/30 04:28:25;;;;;;;23.27;12.27;;;3.60;99.90;;;;;;5074789;28;20224;-79
2021/04/30 04:30:52;;;;;;;16.27;11.47;;;3.50;99.90;;;;;;5075750;28;20179;-79
2021/04/30 04:33:19;;;;;;;15.90;11.80;;;3.50;99.90;;;;;;5074388;28;20171;-78
2021/04/30 04:35:44;;;;;;;17.27;11.67;;;3.50;99.90;;;;;;5075564;28;20167;-78
2021/04/30 04:38:10;;;;;;;17.47;12.90;;;3.50;99.90;;;;;;5074464;28;20175;-79
2021/04/30 04:40:36;;;;;;;18.60;13.20;;;3.60;99.90;;;;;;5074119;28;20170;-79
2021/04/30 04:43:01;;;;;;;20.03;14.03;;;3.70;99.90;;;;;;5075741;28;20527;-79
2021/04/30 04:45:27;;;;;;;17.97;14.40;;;3.80;99.90;;;;;;5074534;28;20198;-79
2021/04/30 04:47:52;;;;;;;20.60;13.10;;;3.90;99.90;;;;;;5091442;28;20178;-79
2021/04/30 04:50:18;;;;;;;22.27;14.27;;;3.90;99.90;;;;;;5074061;28;20179;-79
2021/04/30 04:52:44;;;;;;;21.77;13.87;;;3.90;99.90;;;;;;5075068;28;20202;-79
2021/04/30 04:55:11;;;;;;;18.97;13.53;;;4.00;99.90;;;;;;5074191;28;20175;-79
2021/04/30 04:57:38;;;;;;;24.30;14.07;;;4.10;99.90;;;;;;5074124;28;20686;-78
2021/04/30 05:00:06;;;;;;;19.27;13.13;;;4.10;99.90;;;;;;5074109;28;20175;-79
2021/04/30 05:02:32;;;;;;;15.83;13.37;;;4.20;99.90;;;;;;5073525;28;20190;-79
2021/04/30 05:04:58;;;;;;;16.77;13.50;;;4.40;99.90;;;;;;5075221;28;20190;-79
2021/04/30 05:07:23;;;;;;;20.57;13.37;;;4.60;99.90;;;;;;5074469;28;20654;-79
2021/04/30 05:09:49;;;;;;;15.77;13.03;;;4.80;99.90;;;;;;5057255;28;20690;-79
2021/04/30 05:12:15;;;;;;;13.67;10.17;;;5.00;99.90;;;;;;5073551;28;20171;-79
2021/04/30 05:14:40;;;;;;;13.20;9.97;;;5.20;99.90;;;;;;5073493;28;20187;-79
2021/04/30 05:17:06;;;;;;;12.20;9.93;;;5.30;99.90;;;;;;5073705;28;20181;-79
2021/04/30 05:19:32;;;;;;;21.67;12.40;;;5.50;99.90;;;;;;5075098;28;20182;-79
2021/04/30 05:21:58;;;;;;;22.87;13.33;;;5.70;99.90;;;;;;5073448;28;20190;-79
2021/04/30 05:24:24;;;;;;;19.10;12.37;;;6.00;99.90;;;;;;5073552;28;20166;-79
2021/04/30 05:26:50;;;;;;;12.87;11.40;;;6.20;99.90;;;;;;5073374;28;20194;-78
2021/04/30 05:29:16;;;;;;;10.80;9.80;;;6.40;99.90;;;;;;5077986;28;20175;-78
2021/04/30 05:31:42;;;;;;;11.03;10.00;;;6.50;99.90;;;;;;5084889;28;20171;-79
2021/04/30 05:34:07;;;;;;;24.10;13.07;;;6.70;99.90;;;;;;5075283;28;20177;-78
2021/04/30 05:36:33;;;;;;;22.40;13.10;;;6.80;99.90;;;;;;5075537;28;20178;-78
2021/04/30 05:38:58;;;;;;;16.60;11.77;;;7.10;99.90;;;;;;5073135;28;20174;-78
2021/04/30 05:41:24;;;;;;;20.90;13.17;;;7.20;99.90;;;;;;5074177;28;20174;-78
2021/04/30 05:43:50;;;;;;;16.07;11.97;;;7.20;99.90;;;;;;5074568;28;20577;-78
2021/04/30 05:46:15;;;;;;;15.77;10.93;;;7.20;99.90;;;;;;5074592;28;20530;-78
2021/04/30 05:48:41;;;;;;;9.53;8.50;;;7.20;99.90;;;;;;5074398;28;20272;-78
2021/04/30 05:51:07;;;;;;;9.17;8.27;;;7.20;99.90;;;;;;5072534;28;20179;-78
2021/04/30 05:53:33;;;;;;;10.53;9.10;;;7.20;99.90;;;;;;5072998;28;20210;-81
2021/04/30 05:55:59;;;;;;;16.70;10.60;;;7.40;99.90;;;;;;5073919;28;20535;-79
2021/04/30 05:58:24;;;;;;;17.40;10.93;;;7.70;99.90;;;;;;5073872;28;20544;-79
2021/04/30 06:00:50;;;;;;;14.98;12.75;;;7.90;99.90;;;;;;5073954;28;20178;-78
2021/04/30 06:03:16;;;;;;;16.77;11.55;;;8.30;99.90;;;;;;5073848;28;20643;-79
2021/04/30 06:05:42;;;;;;;13.98;11.15;;;8.50;99.90;;;;;;5072420;28;20281;-79
2021/04/30 06:08:08;;;;;;;14.88;11.63;;;8.80;99.90;;;;;;5074009;28;20219;-79
2021/04/30 06:10:34;;;;;;;12.52;11.20;;;9.30;99.90;;;;;;5072892;28;20612;-79
2021/04/30 06:13:06;;;;;;;16.60;10.90;;;9.80;99.90;;;;;;5073572;28;20181;-79
2021/04/30 06:15:33;;;;;;;15.18;10.75;;;10.10;99.90;;;;;;5072801;28;20224;-79
2021/04/30 06:17:59;;;;;;;20.30;11.27;;;10.30;99.90;;;;;;5072818;28;20205;-79
2021/04/30 06:20:25;;;;;;;14.02;11.32;;;10.60;99.90;;;;;;5073973;28;20189;-79
2021/04/30 06:22:51;;;;;;;14.80;11.07;;;10.60;99.90;;;;;;5073573;28;20508;-79
2021/04/30 06:25:17;;;;;;;16.63;10.43;;;11.00;99.90;;;;;;5055864;28;20226;-79
2021/04/30 06:27:43;;;;;;;18.05;10.38;;;11.20;99.90;;;;;;5055826;28;20206;-79
2021/04/30 06:30:09;;;;;;;18.77;10.88;;;11.10;99.90;;;;;;5073454;28;20177;-79
2021/04/30 06:32:38;;;;;;;18.75;10.88;;;10.90;99.90;;;;;;5071952;28;20173;-80
2021/04/30 06:35:05;;;;;;;12.07;10.95;;;10.70;99.90;;;;;;5073761;28;20178;-79
2021/04/30 06:37:30;;;;;;;19.23;12.25;;;11.00;99.90;;;;;;5073013;28;20196;-79
2021/04/30 06:39:56;;;;;;;26.98;11.18;;;11.60;99.90;;;;;;5073648;28;20623;-79
2021/04/30 06:42:22;;;;;;;14.02;10.75;;;12.30;99.90;;;;;;5072047;28;20179;-79
2021/04/30 06:44:47;;;;;;;15.43;10.48;;;12.30;99.90;;;;;;5073409;28;20277;-79
2021/04/30 06:47:13;;;;;;;15.80;10.13;;;12.40;99.90;;;;;;5055337;28;20244;-79
2021/04/30 06:49:38;;;;;;;13.00;9.80;;;12.50;99.90;;;;;;5072177;28;20182;-80
2021/04/30 06:52:04;;;;;;;11.73;9.00;;;13.90;99.90;;;;;;5055400;28;20175;-79
2021/04/30 06:54:30;;;;;;;10.63;9.52;;;14.90;99.90;;;;;;5072084;28;20216;-80
2021/04/30 06:56:56;;;;;;;9.85;8.85;;;15.90;99.90;;;;;;5071934;28;20182;-80
2021/04/30 06:59:21;;;;;;;14.43;8.90;;;17.10;99.90;;;;;;5072582;28;20178;-80
2021/04/30 07:01:47;;;;;;;17.02;8.57;;;18.30;99.90;;;;;;5072815;28;20253;-82
2021/04/30 07:04:13;;;;;;;21.70;8.57;;;19.60;99.90;;;;;;5073255;28;20213;-80
2021/04/30 07:06:39;;;;;;;10.48;7.68;;;20.70;99.90;;;;;;5073018;28;20302;-80
2021/04/30 07:09:05;;;;;;;12.13;8.30;;;21.70;99.30;;;;;;5057749;28;20265;-80
2021/04/30 07:11:32;;;;;;;17.15;8.05;;;22.30;96.90;;;;;;5077247;28;20178;-80
2021/04/30 07:13:57;;;;;;;9.27;7.95;;;23.10;95.30;;;;;;5075897;28;20686;-82
2021/04/30 07:16:23;;;;;;;18.02;7.00;;;24.00;93.40;;;;;;5059614;28;20213;-82
2021/04/30 07:18:48;;;;;;;15.82;7.50;;;23.60;93.60;;;;;;5075835;28;20619;-79
2021/04/30 07:21:14;;;;;;;10.68;6.93;;;23.50;93.80;;;;;;5076510;28;20181;-79
2021/04/30 07:23:40;;;;;;;14.45;7.60;;;23.00;93.30;;;;;;5075621;28;20269;-79
2021/04/30 07:26:05;;;;;;;13.00;7.13;;;22.20;94.00;;;;;;5059118;28;20206;-78
2021/04/30 07:28:31;;;;;;;8.82;7.13;;;22.30;94.60;;;;;;5075782;28;20174;-78
2021/04/30 07:30:58;;;;;;;17.63;7.55;;;22.70;94.20;;;;;;5076811;28;20673;-78
2021/04/30 07:33:24;;;;;;;10.85;6.88;;;23.30;92.70;;;;;;5077065;28;20249;-78
2021/04/30 07:35:49;;;;;;;19.83;7.53;;;22.80;93.20;;;;;;5075180;28;20344;-78
2021/04/30 07:38:15;;;;;;;15.95;6.65;;;21.90;94.00;;;;;;5077235;28;20245;-79
2021/04/30 07:40:43;;;;;;;9.23;6.68;;;22.50;94.20;;;;;;5075247;28;20167;-80
2021/04/30 07:43:13;;;;;;;16.88;6.22;;;24.30;92.20;;;;;;5075338;28;20171;-80
2021/04/30 07:45:41;;;;;;;20.75;6.95;;;24.60;90.80;;;;;;5076648;28;20198;-80
2021/04/30 07:48:08;;;;;;;12.18;7.10;;;23.40;91.10;;;;;;5077136;28;20265;-79
2021/04/30 07:50:34;;;;;;;15.13;6.30;;;23.10;91.30;;;;;;5069933;28;20697;-79
2021/04/30 07:53:00;;;;;;;11.38;6.28;;;24.30;90.70;;;;;;5074163;28;20232;-79
2021/04/30 07:55:26;;;;;;;11.85;6.22;;;26.30;87.90;;;;;;5075965;28;20179;-79
2021/04/30 07:57:52;;;;;;;11.25;5.80;;;26.30;84.50;;;;;;5066883;28;20183;-80
2021/04/30 08:00:18;;;;;;;6.03;5.50;;;25.30;85.60;;;;;;5074806;28;20175;-80
2021/04/30 08:02:44;;;;;;;15.57;5.55;;;24.30;87.50;;;;;;5072403;28;20631;-79
2021/04/30 08:05:10;;;;;;;11.25;5.65;;;23.50;87.90;;;;;;5075825;28;20198;-79
2021/04/30 08:07:36;;;;;;;14.77;5.93;;;23.90;90.10;;;;;;5074795;28;20179;-78
2021/04/30 08:10:03;;;;;;;17.00;5.75;;;25.60;86.30;;;;;;5075522;28;20162;-79
2021/04/30 08:12:29;;;;;;;13.02;5.47;;;27.40;83.20;;;;;;5075205;28;20642;-79
2021/04/30 08:14:55;;;;;;;7.10;5.18;;;29.50;78.20;;;;;;5074834;28;20171;-79
2021/04/30 08:17:21;;;;;;;8.63;4.57;;;30.70;73.70;;;;;;5076166;28;20171;-80
2021/04/30 08:19:46;;;;;;;10.68;6.00;;;30.90;71.10;;;;;;5073630;28;20634;-80
2021/04/30 08:22:12;;;;;;;15.35;5.70;;;29.40;71.70;;;;;;5074649;28;20260;-79
2021/04/30 08:24:37;;;;;;;14.35;5.45;;;27.10;75.10;;;;;;5074538;28;20738;-81
2021/04/30 08:27:03;;;;;;;23.30;6.40;;;26.60;75.80;;;;;;5075785;28;20619;-80
2021/04/30 08:29:29;;;;;;;13.68;6.03;;;27.10;73.90;;;;;;5058004;28;20186;-79
2021/04/30 08:31:54;;;;;;;17.00;6.38;;;25.40;76.70;;;;;;5075697;28;20185;-80
2021/04/30 08:34:20;;;;;;;13.80;6.15;;;23.80;79.50;;;;;;5075845;28;20269;-80
2021/04/30 08:36:46;;;;;;;20.05;8.07;;;23.40;82.20;;;;;;5037788;28;20180;-80
2021/04/30 08:39:12;;;;;;;10.82;5.57;;;25.00;78.80;;;;;;5073604;28;20609;-80
2021/04/30 08:41:38;;;;;;;11.15;6.28;;;24.80;78.20;;;;;;5074017;28;20249;-80
2021/04/30 08:44:05;;;;;;;15.07;6.30;;;23.50;79.70;;;;;;5074154;28;20170;-80
2021/04/30 08:46:32;;;;;;;13.70;5.28;;;22.40;83.20;;;;;;5074379;28;20199;-80
2021/04/30 08:49:06;;;;;;;13.45;6.32;;;23.80;82.00;;;;;;5075634;28;20177;-80
2021/04/30 08:51:33;;;;;;;6.28;5.70;;;26.50;75.80;;;;;;5075330;28;20618;-80
2021/04/30 08:53:59;;;;;;;8.07;5.30;;;26.40;74.80;;;;;;5075338;28;20163;-79
2021/04/30 08:56:24;;;;;;;11.88;5.72;;;27.40;73.60;;;;;;5074203;28;20533;-80
2021/04/30 08:58:52;;;;;;;9.60;6.00;;;28.50;70.50;;;;;;5074073;28;20208;-80
2021/04/30 09:01:17;;;;;;;11.40;5.70;;;28.40;69.70;;;;;;5075332;28;20167;-79
2021/04/30 09:03:43;;;;;;;14.52;5.88;;;27.20;69.80;;;;;;5074907;28;20569;-80
2021/04/30 09:06:09;;;;;;;10.40;6.30;;;26.10;72.70;;;;;;5068424;28;20217;-79
2021/04/30 09:08:49;;;;;;;12.65;6.45;;;23.40;76.70;;;;;;5074567;28;20189;-80
2021/04/30 09:11:32;;;;;;;11.88;5.50;;;21.80;79.60;;;;;;5074804;28;20158;-83
2021/04/30 09:14:19;;;;;;;15.63;7.03;;;20.50;81.60;;;;;;5074338;28;20263;-84
2021/04/30 09:16:58;;;;;;;8.30;5.80;;;22.30;80.00;;;;;;5067894;28;20187;-85
2021/04/30 09:19:33;;;;;;;14.30;6.80;;;22.30;79.40;;;;;;5074091;28;20190;-86
2021/04/30 09:22:03;;;;;;;14.80;6.65;;;21.30;81.00;;;;;;5074096;28;20245;-86
2021/04/30 09:24:29;;;;;;;12.20;6.38;;;21.20;84.40;;;;;;5075290;28;20143;-86
2021/04/30 09:26:57;;;;;;;10.25;5.45;;;23.20;82.70;;;;;;5074618;28;20501;-84
2021/04/30 09:29:22;;;;;;;16.13;6.22;;;26.00;78.50;;;;;;5074696;28;20215;-82
2021/04/30 09:31:49;;;;;;;8.00;6.60;;;27.70;72.80;;;;;;5072502;28;20207;-81
2021/04/30 09:34:25;;;;;;;8.68;6.30;;;28.10;70.30;;;;;;5074613;28;20182;-80
2021/04/30 09:37:16;;;;;;;9.13;6.40;;;27.90;71.10;;;;;;5073807;28;20158;-83
2021/04/30 09:39:50;;;;;;;11.40;5.63;;;28.90;71.80;;;;;;5074567;28;20167;-83
2021/04/30 09:42:17;;;;;;;9.00;5.90;;;30.10;69.80;;;;;;5074487;28;20166;-85
2021/04/30 09:44:45;;;;;;;8.02;5.63;;;30.90;68.60;;;;;;5074206;28;20200;-82
2021/04/30 09:47:15;;;;;;;17.05;6.15;;;30.90;68.50;;;;;;5073152;28;20227;-81
2021/04/30 09:49:41;;;;;;;9.90;5.72;;;30.60;65.00;;;;;;5072732;28;20167;-81
2021/04/30 09:52:10;;;;;;;8.15;5.78;;;28.70;67.80;;;;;;5074638;28;20169;-83
2021/04/30 09:54:38;;;;;;;11.38;5.15;;;28.70;68.50;;;;;;5073539;28;20167;-88
2021/04/30 09:57:15;;;;;;;11.48;5.57;;;27.90;69.50;;;;;;5072725;28;20166;-83
2021/04/30 09:59:53;;;;;;;9.40;5.63;;;26.80;72.00;;;;;;5074606;28;20193;-82
2021/04/30 10:02:21;;;;;;;13.57;5.78;;;26.30;73.10;;;;;;5073758;28;20270;-79
2021/04/30 10:04:48;;;;;;;17.48;6.18;;;28.20;71.10;;;;;;5071778;28;20198;-86
2021/04/30 10:07:25;;;;;;;10.13;5.68;;;28.70;68.20;;;;;;5073211;28;20174;-87
2021/04/30 10:10:02;;;;;;;9.75;5.63;;;29.90;66.50;;;;;;5074724;28;20194;-86
2021/04/30 10:12:28;;;;;;;9.40;5.40;;;29.20;64.90;;;;;;5074143;28;20158;-86
2021/04/30 10:14:54;;;;;;;8.00;5.35;;;29.30;65.20;;;;;;5056657;28;20243;-87
2021/04/30 10:17:20;;;;;;;18.48;5.72;;;28.60;63.30;;;;;;5072945;28;20262;-87
2021/04/30 10:19:47;;;;;;;6.85;4.85;;;28.00;65.80;;;;;;5073964;28;20191;-86
2021/04/30 10:22:22;;;;;;;6.63;5.40;;;30.10;63.10;;;;;;5071545;28;20178;-90
2021/04/30 10:24:51;;;;;;;13.95;5.53;;;31.20;61.50;;;;;;5070436;28;20339;-84
2021/04/30 10:27:19;;;;;;;13.27;5.38;;;30.50;62.40;;;;;;5072138;28;20171;-86
2021/04/30 10:29:51;;;;;;;9.02;5.55;;;32.20;59.90;;;;;;5074046;28;20166;-86
2021/04/30 10:32:20;;;;;;;11.55;5.70;;;28.70;61.90;;;;;;5071222;28;20202;-84
2021/04/30 10:34:49;;;;;;;17.02;6.78;;;25.70;65.90;;;;;;5053452;28;20159;-86
2021/04/30 10:37:23;;;;;;;13.32;7.15;;;23.40;71.70;;;;;;5054367;28;20171;-87
2021/04/30 10:39:57;;;;;;;8.80;6.97;;;22.30;75.20;;;;;;5072878;28;20146;-87
2021/04/30 10:42:31;;;;;;;7.40;6.57;;;24.70;72.60;;;;;;5072326;28;20253;-83
2021/04/30 10:45:01;;;;;;;12.13;6.53;;;26.60;68.10;;;;;;5071496;28;20650;-83
2021/04/30 10:47:28;;;;;;;6.47;5.78;;;28.10;68.00;;;;;;5071125;28;20621;-84
2021/04/30 10:50:12;;;;;;;10.77;6.72;;;29.00;65.40;;;;;;5071200;28;20175;-84
2021/04/30 10:52:38;;;;;;;11.00;5.22;;;28.70;63.30;;;;;;5073273;28;20159;-86
2021/04/30 10:55:06;;;;;;;11.18;6.20;;;30.20;63.10;;;;;;5070901;28;20198;-86
2021/04/30 10:57:53;;;;;;;8.07;5.65;;;30.00;60.50;;;;;;5071965;28;20247;-88
2021/04/30 11:00:25;;;;;;;10.55;5.68;;;29.20;62.30;;;;;;5073971;28;20204;-82
2021/04/30 11:03:13;;;;;;;7.80;5.25;;;29.10;61.60;;;;;;5073270;28;20181;-86
2021/04/30 11:06:04;;;;;;;7.25;5.32;;;27.40;63.60;;;;;;5069962;28;20194;-85
2021/04/30 11:08:49;;;;;;;12.48;6.30;;;25.20;65.10;;;;;;5073460;28;20193;-85
2021/04/30 11:11:16;;;;;;;11.60;5.55;;;24.00;69.30;;;;;;5054682;28;20174;-84
2021/04/30 11:14:20;;;;;;;6.45;5.88;;;23.70;70.40;;;;;;5072734;28;20174;-83
2021/04/30 11:16:46;;;;;;;10.65;6.22;;;25.90;69.20;;;;;;5071661;28;20178;-82
2021/04/30 11:19:12;;;;;;;11.93;6.25;;;26.20;65.70;;;;;;5072600;28;20162;-84
2021/04/30 11:21:49;;;;;;;9.05;6.55;;;23.90;69.80;;;;;;5071034;28;20171;-83
2021/04/30 11:24:35;;;;;;;11.05;6.60;;;22.30;73.00;;;;;;5072540;28;20151;-83
2021/04/30 11:27:19;;;;;;;9.15;6.20;;;21.60;74.90;;;;;;5071002;28;20194;-83
2021/04/30 11:29:46;;;;;;;10.30;7.05;;;21.10;76.40;;;;;;5072914;28;20170;-84
2021/04/30 11:32:24;;;;;;;12.88;7.10;;;20.50;77.00;;;;;;5071614;28;20521;-83
2021/04/30 11:35:00;;;;;;;11.60;7.05;;;19.90;78.00;;;;;;5070488;28;20162;-83
2021/04/30 11:37:33;;;;;;;9.27;7.68;;;19.70;78.60;;;;;;5058714;28;20155;-84
2021/04/30 11:40:00;;;;;;;12.60;7.60;;;19.60;80.20;;;;;;5073020;28;20175;-85
2021/04/30 11:42:33;;;;;;;10.77;7.10;;;19.60;81.00;;;;;;5072214;28;20409;-85
2021/04/30 11:45:00;;;;;;;12.57;7.93;;;19.80;81.40;;;;;;5072697;28;20191;-83
2021/04/30 11:47:30;;;;;;;10.48;7.38;;;19.00;81.50;;;;;;5071597;28;20258;-86
2021/04/30 11:49:56;;;;;;;14.10;7.40;;;18.80;82.50;;;;;;5071232;28;20233;-85
2021/04/30 11:52:30;;;;;;;13.13;6.82;;;18.50;84.90;;;;;;5072957;28;20190;-85
2021/04/30 11:55:10;;;;;;;8.10;7.30;;;18.50;85.00;;;;;;5072956;28;20186;-83
2021/04/30 11:57:36;;;;;;;10.35;7.13;;;18.60;85.90;;;;;;5077066;28;20175;-83
2021/04/30 12:00:04;;;;;;;13.00;7.50;;;18.50;86.90;;;;;;5080373;28;20202;-85
2021/04/30 12:02:30;;;;;;;9.80;7.00;;;18.50;86.90;;;;;;5081767;28;20201;-85
2021/04/30 12:04:56;;;;;;;13.93;7.20;;;20.00;85.00;;;;;;5081223;28;20195;-83
2021/04/30 12:07:24;;;;;;;7.57;6.85;;;22.50;80.80;;;;;;5078445;28;20318;-86
2021/04/30 12:09:51;;;;;;;14.52;7.30;;;24.20;76.50;;;;;;5080427;28;20159;-84
2021/04/30 12:12:20;;;;;;;17.20;7.43;;;24.10;75.10;;;;;;5079883;28;20155;-85
2021/04/30 12:14:46;;;;;;;9.35;5.75;;;24.40;73.30;;;;;;5079122;28;20505;-84
2021/04/30 12:17:26;;;;;;;14.82;6.28;;;23.50;72.40;;;;;;5079557;28;20159;-84
2021/04/30 12:19:58;;;;;;;12.70;6.10;;;22.70;74.00;;;;;;5076815;28;20201;-84
2021/04/30 12:22:25;;;;;;;9.63;5.75;;;21.70;73.70;;;;;;5075615;28;20162;-85
2021/04/30 12:24:50;;;;;;;10.50;6.55;;;20.40;77.40;;;;;;5074978;28;20203;-85
2021/04/30 12:27:27;;;;;;;9.88;6.35;;;19.50;79.20;;;;;;5074222;28;20562;-85
2021/04/30 12:29:53;;;;;;;12.50;6.32;;;18.80;80.90;;;;;;5075958;28;20157;-84
2021/04/30 12:32:27;;;;;;;9.30;5.47;;;18.50;81.70;;;;;;5073970;28;20177;-84
2021/04/30 12:34:56;;;;;;;10.63;5.07;;;17.90;83.60;;;;;;5074650;28;20341;-84
2021/04/30 12:37:21;;;;;;;17.95;5.45;;;17.70;86.30;;;;;;5074309;28;20501;-84
2021/04/30 12:39:47;;;;;;;9.13;5.63;;;17.60;87.40;;;;;;5075227;28;20163;-85
2021/04/30 12:42:13;;;;;;;9.23;5.13;;;17.40;87.30;;;;;;5075115;28;20546;-83
2021/04/30 12:44:49;;;;;;;7.93;5.60;;;17.20;88.70;;;;;;5074948;28;20166;-84